sensor_id;sensor_type;location;lat;lon;timestamp;P1;durP1;ratioP1;P2;durP2;ratioP2
76837;SDS011;65797;47.352;8.164;2023-02-15T00:01:23;27.83;;;9.67;;
76837;SDS011;65797;47.352;8.164;2023-02-15T00:03:49;18.80;;;10.07;;
76837;SDS011;65797;47.352;8.164;2023-02-15T00:06:15;17.63;;;9.17;;
76837;SDS011;65797;47.352;8.164;2023-02-15T00:08:41;35.70;;;9.50;;
76837;SDS011;65797;47.352;8.164;2023-02-15T00:11:08;34.80;;;9.53;;
76837;SDS011;65797;47.352;8.164;2023-02-15T00:13:34;34.87;;;10.27;;
76837;SDS011;65797;47.352;8.164;2023-02-15T00:16:11;50.23;;;10.77;;
76837;SDS011;65797;47.352;8.164;2023-02-15T00:18:40;35.27;;;10.10;;
76837;SDS011;65797;47.352;8.164;2023-02-15T00:21:08;62.83;;;10.73;;
76837;SDS011;65797;47.352;8.164;2023-02-15T00:23:34;52.27;;;9.63;;
76837;SDS011;65797;47.352;8.164;2023-02-15T00:26:04;45.90;;;10.00;;
76837;SDS011;65797;47.352;8.164;2023-02-15T00:28:32;30.20;;;9.60;;
76837;SDS011;65797;47.352;8.164;2023-02-15T00:33:29;26.77;;;10.17;;
76837;SDS011;65797;47.352;8.164;2023-02-15T00:35:56;24.07;;;10.27;;
76837;SDS011;65797;47.352;8.164;2023-02-15T00:38:26;29.00;;;9.17;;
76837;SDS011;65797;47.352;8.164;2023-02-15T00:40:53;36.97;;;9.40;;
76837;SDS011;65797;47.352;8.164;2023-02-15T00:43:19;33.00;;;9.23;;
76837;SDS011;65797;47.352;8.164;2023-02-15T00:45:45;23.60;;;9.50;;
76837;SDS011;65797;47.352;8.164;2023-02-15T00:48:11;20.23;;;9.33;;
76837;SDS011;65797;47.352;8.164;2023-02-15T00:50:37;45.93;;;9.30;;
76837;SDS011;65797;47.352;8.164;2023-02-15T00:53:03;20.73;;;9.03;;
76837;SDS011;65797;47.352;8.164;2023-02-15T00:55:29;28.67;;;8.87;;
76837;SDS011;65797;47.352;8.164;2023-02-15T00:57:54;18.87;;;10.00;;
76837;SDS011;65797;47.352;8.164;2023-02-15T01:00:20;35.87;;;10.70;;
76837;SDS011;65797;47.352;8.164;2023-02-15T01:02:46;47.40;;;10.40;;
76837;SDS011;65797;47.352;8.164;2023-02-15T01:05:11;17.93;;;10.30;;
76837;SDS011;65797;47.352;8.164;2023-02-15T01:07:37;26.07;;;9.90;;
76837;SDS011;65797;47.352;8.164;2023-02-15T01:10:04;19.23;;;9.80;;
76837;SDS011;65797;47.352;8.164;2023-02-15T01:12:31;23.13;;;9.73;;
76837;SDS011;65797;47.352;8.164;2023-02-15T01:14:56;26.97;;;9.40;;
76837;SDS011;65797;47.352;8.164;2023-02-15T01:17:22;32.27;;;11.23;;
76837;SDS011;65797;47.352;8.164;2023-02-15T01:19:48;19.40;;;10.17;;
76837;SDS011;65797;47.352;8.164;2023-02-15T01:22:13;24.70;;;8.83;;
76837;SDS011;65797;47.352;8.164;2023-02-15T01:24:39;30.50;;;10.93;;
76837;SDS011;65797;47.352;8.164;2023-02-15T01:27:05;49.23;;;10.30;;
76837;SDS011;65797;47.352;8.164;2023-02-15T01:29:30;25.20;;;9.50;;
76837;SDS011;65797;47.352;8.164;2023-02-15T01:31:56;41.47;;;9.60;;
76837;SDS011;65797;47.352;8.164;2023-02-15T01:34:22;40.27;;;10.03;;
76837;SDS011;65797;47.352;8.164;2023-02-15T01:36:47;29.57;;;10.10;;
76837;SDS011;65797;47.352;8.164;2023-02-15T01:39:13;34.27;;;9.50;;
76837;SDS011;65797;47.352;8.164;2023-02-15T01:41:39;35.67;;;8.20;;
76837;SDS011;65797;47.352;8.164;2023-02-15T01:47:10;113.50;;;12.33;;
76837;SDS011;65797;47.352;8.164;2023-02-15T01:49:39;27.00;;;8.57;;
76837;SDS011;65797;47.352;8.164;2023-02-15T01:52:08;59.97;;;9.27;;
76837;SDS011;65797;47.352;8.164;2023-02-15T01:54:36;31.77;;;8.60;;
76837;SDS011;65797;47.352;8.164;2023-02-15T01:57:07;101.67;;;11.50;;
76837;SDS011;65797;47.352;8.164;2023-02-15T01:59:37;15.83;;;9.20;;
76837;SDS011;65797;47.352;8.164;2023-02-15T02:02:05;35.67;;;9.30;;
76837;SDS011;65797;47.352;8.164;2023-02-15T02:04:53;38.37;;;9.90;;
76837;SDS011;65797;47.352;8.164;2023-02-15T02:07:24;34.10;;;8.50;;
76837;SDS011;65797;47.352;8.164;2023-02-15T02:09:54;77.73;;;9.87;;
76837;SDS011;65797;47.352;8.164;2023-02-15T02:12:20;39.53;;;8.77;;
76837;SDS011;65797;47.352;8.164;2023-02-15T02:14:47;41.73;;;8.73;;
76837;SDS011;65797;47.352;8.164;2023-02-15T02:34:29;34.03;;;9.60;;
76837;SDS011;65797;47.352;8.164;2023-02-15T02:42:55;45.57;;;9.97;;
76837;SDS011;65797;47.352;8.164;2023-02-15T02:45:40;23.37;;;8.20;;
76837;SDS011;65797;47.352;8.164;2023-02-15T02:48:15;28.50;;;9.00;;
76837;SDS011;65797;47.352;8.164;2023-02-15T02:50:45;22.97;;;9.80;;
76837;SDS011;65797;47.352;8.164;2023-02-15T02:53:11;15.83;;;9.87;;
76837;SDS011;65797;47.352;8.164;2023-02-15T02:58:26;32.83;;;10.80;;
76837;SDS011;65797;47.352;8.164;2023-02-15T03:01:04;21.43;;;9.73;;
76837;SDS011;65797;47.352;8.164;2023-02-15T03:03:38;44.77;;;9.70;;
76837;SDS011;65797;47.352;8.164;2023-02-15T03:06:14;48.47;;;9.23;;
76837;SDS011;65797;47.352;8.164;2023-02-15T03:08:50;53.37;;;9.17;;
76837;SDS011;65797;47.352;8.164;2023-02-15T03:11:19;31.80;;;8.13;;
76837;SDS011;65797;47.352;8.164;2023-02-15T03:13:45;29.00;;;8.03;;
76837;SDS011;65797;47.352;8.164;2023-02-15T03:16:13;48.50;;;7.63;;
76837;SDS011;65797;47.352;8.164;2023-02-15T03:18:53;20.90;;;7.30;;
76837;SDS011;65797;47.352;8.164;2023-02-15T03:21:41;58.03;;;8.27;;
76837;SDS011;65797;47.352;8.164;2023-02-15T03:24:22;22.13;;;8.10;;
76837;SDS011;65797;47.352;8.164;2023-02-15T03:26:52;22.67;;;7.70;;
76837;SDS011;65797;47.352;8.164;2023-02-15T03:29:20;13.67;;;8.07;;
76837;SDS011;65797;47.352;8.164;2023-02-15T03:31:49;21.33;;;7.90;;
76837;SDS011;65797;47.352;8.164;2023-02-15T03:34:19;31.43;;;8.50;;
76837;SDS011;65797;47.352;8.164;2023-02-15T03:39:30;28.77;;;8.23;;
76837;SDS011;65797;47.352;8.164;2023-02-15T03:42:12;79.77;;;8.13;;
76837;SDS011;65797;47.352;8.164;2023-02-15T03:45:03;41.40;;;8.10;;
76837;SDS011;65797;47.352;8.164;2023-02-15T03:47:37;15.53;;;8.07;;
76837;SDS011;65797;47.352;8.164;2023-02-15T03:53:00;38.87;;;8.47;;
76837;SDS011;65797;47.352;8.164;2023-02-15T03:55:29;46.07;;;7.83;;
76837;SDS011;65797;47.352;8.164;2023-02-15T03:57:55;17.13;;;8.07;;
76837;SDS011;65797;47.352;8.164;2023-02-15T04:00:41;19.20;;;8.23;;
76837;SDS011;65797;47.352;8.164;2023-02-15T04:03:57;17.33;;;7.33;;
76837;SDS011;65797;47.352;8.164;2023-02-15T04:06:47;13.97;;;8.10;;
76837;SDS011;65797;47.352;8.164;2023-02-15T04:09:13;12.20;;;7.90;;
76837;SDS011;65797;47.352;8.164;2023-02-15T04:11:57;34.80;;;8.30;;
76837;SDS011;65797;47.352;8.164;2023-02-15T04:14:23;17.00;;;8.33;;
76837;SDS011;65797;47.352;8.164;2023-02-15T04:17:08;14.23;;;7.40;;
76837;SDS011;65797;47.352;8.164;2023-02-15T04:19:34;25.00;;;8.93;;
76837;SDS011;65797;47.352;8.164;2023-02-15T04:22:18;15.30;;;8.37;;
76837;SDS011;65797;47.352;8.164;2023-02-15T04:25:03;30.20;;;7.77;;
76837;SDS011;65797;47.352;8.164;2023-02-15T04:27:39;50.03;;;8.50;;
76837;SDS011;65797;47.352;8.164;2023-02-15T04:30:07;22.93;;;8.87;;
76837;SDS011;65797;47.352;8.164;2023-02-15T04:32:34;26.57;;;8.40;;
76837;SDS011;65797;47.352;8.164;2023-02-15T04:35:00;34.07;;;8.70;;
76837;SDS011;65797;47.352;8.164;2023-02-15T04:37:26;28.80;;;7.63;;
76837;SDS011;65797;47.352;8.164;2023-02-15T04:39:53;15.37;;;8.47;;
76837;SDS011;65797;47.352;8.164;2023-02-15T04:42:19;25.13;;;8.73;;
76837;SDS011;65797;47.352;8.164;2023-02-15T04:44:44;41.93;;;7.93;;
76837;SDS011;65797;47.352;8.164;2023-02-15T04:47:10;51.23;;;9.27;;
76837;SDS011;65797;47.352;8.164;2023-02-15T04:49:36;33.87;;;8.50;;
76837;SDS011;65797;47.352;8.164;2023-02-15T04:52:01;46.83;;;8.27;;
76837;SDS011;65797;47.352;8.164;2023-02-15T04:54:27;26.03;;;8.97;;
76837;SDS011;65797;47.352;8.164;2023-02-15T04:56:53;43.37;;;9.67;;
76837;SDS011;65797;47.352;8.164;2023-02-15T04:59:19;33.13;;;9.10;;
76837;SDS011;65797;47.352;8.164;2023-02-15T05:01:44;18.83;;;8.27;;
76837;SDS011;65797;47.352;8.164;2023-02-15T05:04:10;22.60;;;8.27;;
76837;SDS011;65797;47.352;8.164;2023-02-15T05:06:35;12.30;;;7.70;;
76837;SDS011;65797;47.352;8.164;2023-02-15T05:09:01;12.87;;;7.70;;
76837;SDS011;65797;47.352;8.164;2023-02-15T05:11:27;15.93;;;8.20;;
76837;SDS011;65797;47.352;8.164;2023-02-15T05:13:53;14.40;;;9.00;;
76837;SDS011;65797;47.352;8.164;2023-02-15T05:16:18;14.87;;;8.00;;
76837;SDS011;65797;47.352;8.164;2023-02-15T05:18:44;16.17;;;8.80;;
76837;SDS011;65797;47.352;8.164;2023-02-15T05:21:09;13.60;;;8.30;;
76837;SDS011;65797;47.352;8.164;2023-02-15T05:23:35;26.33;;;11.20;;
76837;SDS011;65797;47.352;8.164;2023-02-15T05:26:02;26.43;;;8.70;;
76837;SDS011;65797;47.352;8.164;2023-02-15T05:28:47;19.43;;;8.40;;
76837;SDS011;65797;47.352;8.164;2023-02-15T05:31:18;19.77;;;8.90;;
76837;SDS011;65797;47.352;8.164;2023-02-15T05:33:44;31.00;;;9.37;;
76837;SDS011;65797;47.352;8.164;2023-02-15T05:36:11;17.90;;;8.00;;
76837;SDS011;65797;47.352;8.164;2023-02-15T05:38:36;37.00;;;8.73;;
76837;SDS011;65797;47.352;8.164;2023-02-15T05:41:03;28.03;;;8.60;;
76837;SDS011;65797;47.352;8.164;2023-02-15T05:43:30;26.93;;;7.97;;
76837;SDS011;65797;47.352;8.164;2023-02-15T05:45:56;16.27;;;7.70;;
76837;SDS011;65797;47.352;8.164;2023-02-15T05:48:22;28.70;;;8.00;;
76837;SDS011;65797;47.352;8.164;2023-02-15T05:53:26;15.87;;;7.77;;
76837;SDS011;65797;47.352;8.164;2023-02-15T05:55:52;22.53;;;8.10;;
76837;SDS011;65797;47.352;8.164;2023-02-15T05:58:19;32.17;;;9.10;;
76837;SDS011;65797;47.352;8.164;2023-02-15T06:00:45;14.97;;;8.57;;
76837;SDS011;65797;47.352;8.164;2023-02-15T06:03:11;23.13;;;8.20;;
76837;SDS011;65797;47.352;8.164;2023-02-15T06:05:36;27.03;;;9.80;;
76837;SDS011;65797;47.352;8.164;2023-02-15T06:08:04;15.20;;;9.57;;
76837;SDS011;65797;47.352;8.164;2023-02-15T06:10:29;19.87;;;8.97;;
76837;SDS011;65797;47.352;8.164;2023-02-15T06:12:55;41.10;;;10.20;;
76837;SDS011;65797;47.352;8.164;2023-02-15T06:15:20;27.00;;;8.80;;
76837;SDS011;65797;47.352;8.164;2023-02-15T06:17:46;22.23;;;9.57;;
76837;SDS011;65797;47.352;8.164;2023-02-15T06:20:12;13.50;;;8.50;;
76837;SDS011;65797;47.352;8.164;2023-02-15T06:22:38;23.60;;;9.87;;
76837;SDS011;65797;47.352;8.164;2023-02-15T06:25:03;15.93;;;9.00;;
76837;SDS011;65797;47.352;8.164;2023-02-15T06:27:29;26.60;;;8.70;;
76837;SDS011;65797;47.352;8.164;2023-02-15T06:29:55;66.63;;;8.87;;
76837;SDS011;65797;47.352;8.164;2023-02-15T06:32:21;17.90;;;8.40;;
76837;SDS011;65797;47.352;8.164;2023-02-15T06:34:46;33.43;;;9.77;;
76837;SDS011;65797;47.352;8.164;2023-02-15T06:37:12;16.97;;;8.73;;
76837;SDS011;65797;47.352;8.164;2023-02-15T06:39:38;17.80;;;9.77;;
76837;SDS011;65797;47.352;8.164;2023-02-15T06:42:03;24.20;;;8.70;;
76837;SDS011;65797;47.352;8.164;2023-02-15T06:44:29;63.73;;;9.90;;
76837;SDS011;65797;47.352;8.164;2023-02-15T06:46:55;27.80;;;8.70;;
76837;SDS011;65797;47.352;8.164;2023-02-15T06:49:20;35.97;;;8.63;;
76837;SDS011;65797;47.352;8.164;2023-02-15T06:51:46;32.63;;;8.53;;
76837;SDS011;65797;47.352;8.164;2023-02-15T06:54:12;42.83;;;8.77;;
76837;SDS011;65797;47.352;8.164;2023-02-15T06:56:37;32.30;;;9.70;;
76837;SDS011;65797;47.352;8.164;2023-02-15T06:59:03;25.10;;;8.60;;
76837;SDS011;65797;47.352;8.164;2023-02-15T10:27:54;24.30;;;13.60;;
76837;SDS011;65797;47.352;8.164;2023-02-15T10:35:45;27.73;;;13.80;;
76837;SDS011;65797;47.352;8.164;2023-02-15T10:43:41;29.27;;;16.20;;
76837;SDS011;65797;47.352;8.164;2023-02-15T11:03:16;29.37;;;16.20;;
76837;SDS011;65797;47.352;8.164;2023-02-15T11:05:57;25.33;;;15.07;;
76837;SDS011;65797;47.352;8.164;2023-02-15T11:08:24;25.63;;;14.97;;
76837;SDS011;65797;47.352;8.164;2023-02-15T11:10:54;30.57;;;16.67;;
76837;SDS011;65797;47.352;8.164;2023-02-15T11:13:27;33.63;;;16.60;;
76837;SDS011;65797;47.352;8.164;2023-02-15T11:18:41;28.07;;;15.90;;
76837;SDS011;65797;47.352;8.164;2023-02-15T11:21:33;32.97;;;16.33;;
76837;SDS011;65797;47.352;8.164;2023-02-15T11:24:12;30.07;;;16.07;;
76837;SDS011;65797;47.352;8.164;2023-02-15T11:26:54;28.40;;;16.50;;
76837;SDS011;65797;47.352;8.164;2023-02-15T11:29:32;28.57;;;16.50;;
76837;SDS011;65797;47.352;8.164;2023-02-15T11:37:46;31.10;;;16.63;;
76837;SDS011;65797;47.352;8.164;2023-02-15T11:42:59;33.10;;;17.63;;
76837;SDS011;65797;47.352;8.164;2023-02-15T11:45:32;36.33;;;18.63;;
76837;SDS011;65797;47.352;8.164;2023-02-15T11:48:00;27.93;;;16.23;;
76837;SDS011;65797;47.352;8.164;2023-02-15T11:50:31;29.70;;;17.30;;
76837;SDS011;65797;47.352;8.164;2023-02-15T11:52:58;34.27;;;17.37;;
76837;SDS011;65797;47.352;8.164;2023-02-15T11:55:29;35.27;;;19.93;;
76837;SDS011;65797;47.352;8.164;2023-02-15T12:06:02;35.17;;;18.47;;
76837;SDS011;65797;47.352;8.164;2023-02-15T12:08:37;34.27;;;17.90;;
76837;SDS011;65797;47.352;8.164;2023-02-15T12:13:56;37.97;;;19.67;;
76837;SDS011;65797;47.352;8.164;2023-02-15T12:16:24;40.63;;;20.17;;
76837;SDS011;65797;47.352;8.164;2023-02-15T12:18:52;41.20;;;22.03;;
76837;SDS011;65797;47.352;8.164;2023-02-15T12:21:31;36.37;;;21.00;;
76837;SDS011;65797;47.352;8.164;2023-02-15T12:26:45;32.70;;;19.30;;
76837;SDS011;65797;47.352;8.164;2023-02-15T12:29:42;36.03;;;20.53;;
76837;SDS011;65797;47.352;8.164;2023-02-15T12:32:19;39.20;;;20.10;;
76837;SDS011;65797;47.352;8.164;2023-02-15T12:34:50;40.83;;;20.50;;
76837;SDS011;65797;47.352;8.164;2023-02-15T12:37:23;37.43;;;20.53;;
76837;SDS011;65797;47.352;8.164;2023-02-15T12:39:55;45.43;;;22.23;;
76837;SDS011;65797;47.352;8.164;2023-02-15T12:42:23;37.83;;;21.10;;
76837;SDS011;65797;47.352;8.164;2023-02-15T12:45:19;36.47;;;21.10;;
76837;SDS011;65797;47.352;8.164;2023-02-15T12:48:07;41.90;;;20.47;;
76837;SDS011;65797;47.352;8.164;2023-02-15T12:50:43;43.70;;;21.00;;
76837;SDS011;65797;47.352;8.164;2023-02-15T12:53:14;41.07;;;22.90;;
76837;SDS011;65797;47.352;8.164;2023-02-15T12:55:58;41.37;;;21.27;;
76837;SDS011;65797;47.352;8.164;2023-02-15T13:06:22;37.30;;;20.80;;
76837;SDS011;65797;47.352;8.164;2023-02-15T13:08:49;37.10;;;19.93;;
76837;SDS011;65797;47.352;8.164;2023-02-15T13:11:27;33.47;;;19.10;;
76837;SDS011;65797;47.352;8.164;2023-02-15T13:14:21;37.93;;;20.93;;
76837;SDS011;65797;47.352;8.164;2023-02-15T13:16:56;41.00;;;21.20;;
76837;SDS011;65797;47.352;8.164;2023-02-15T13:21:53;33.80;;;19.73;;
76837;SDS011;65797;47.352;8.164;2023-02-15T13:24:24;39.23;;;22.40;;
76837;SDS011;65797;47.352;8.164;2023-02-15T13:26:55;34.70;;;20.63;;
76837;SDS011;65797;47.352;8.164;2023-02-15T13:31:51;41.63;;;21.60;;
76837;SDS011;65797;47.352;8.164;2023-02-15T13:34:28;36.90;;;20.53;;
76837;SDS011;65797;47.352;8.164;2023-02-15T13:37:19;40.87;;;21.57;;
76837;SDS011;65797;47.352;8.164;2023-02-15T13:40:04;35.53;;;21.20;;
76837;SDS011;65797;47.352;8.164;2023-02-15T13:48:51;34.60;;;20.20;;
76837;SDS011;65797;47.352;8.164;2023-02-15T13:51:39;35.20;;;20.83;;
76837;SDS011;65797;47.352;8.164;2023-02-15T13:57:11;39.13;;;20.87;;
76837;SDS011;65797;47.352;8.164;2023-02-15T14:00:01;38.53;;;20.20;;
76837;SDS011;65797;47.352;8.164;2023-02-15T14:26:18;34.60;;;20.33;;
76837;SDS011;65797;47.352;8.164;2023-02-15T14:28:53;38.47;;;19.93;;
76837;SDS011;65797;47.352;8.164;2023-02-15T14:31:45;35.83;;;20.43;;
76837;SDS011;65797;47.352;8.164;2023-02-15T14:34:24;34.67;;;20.57;;
76837;SDS011;65797;47.352;8.164;2023-02-15T14:36:51;30.47;;;19.33;;
76837;SDS011;65797;47.352;8.164;2023-02-15T14:42:31;32.97;;;19.23;;
76837;SDS011;65797;47.352;8.164;2023-02-15T14:45:13;31.50;;;20.30;;
76837;SDS011;65797;47.352;8.164;2023-02-15T14:48:10;31.73;;;19.73;;
76837;SDS011;65797;47.352;8.164;2023-02-15T14:50:46;36.43;;;19.97;;
76837;SDS011;65797;47.352;8.164;2023-02-15T15:01:08;34.50;;;19.07;;
76837;SDS011;65797;47.352;8.164;2023-02-15T15:06:20;35.60;;;18.67;;
76837;SDS011;65797;47.352;8.164;2023-02-15T15:08:53;38.63;;;21.37;;
76837;SDS011;65797;47.352;8.164;2023-02-15T15:13:56;32.10;;;17.97;;
76837;SDS011;65797;47.352;8.164;2023-02-15T15:19:08;23.03;;;14.23;;
76837;SDS011;65797;47.352;8.164;2023-02-15T15:21:54;21.43;;;14.67;;
76837;SDS011;65797;47.352;8.164;2023-02-15T15:25:02;21.40;;;14.00;;
76837;SDS011;65797;47.352;8.164;2023-02-15T15:39:19;23.17;;;12.80;;
76837;SDS011;65797;47.352;8.164;2023-02-15T15:41:26;17.80;;;11.90;;
76837;SDS011;65797;47.352;8.164;2023-02-15T15:44:19;20.10;;;12.67;;
76837;SDS011;65797;47.352;8.164;2023-02-15T15:49:36;20.23;;;13.60;;
76837;SDS011;65797;47.352;8.164;2023-02-15T15:54:38;22.50;;;13.40;;
76837;SDS011;65797;47.352;8.164;2023-02-15T16:17:50;28.33;;;18.00;;
76837;SDS011;65797;47.352;8.164;2023-02-15T16:33:17;26.77;;;14.87;;
76837;SDS011;65797;47.352;8.164;2023-02-15T16:56:27;19.57;;;12.27;;
76837;SDS011;65797;47.352;8.164;2023-02-15T16:58:55;22.07;;;13.53;;
76837;SDS011;65797;47.352;8.164;2023-02-15T17:01:23;23.00;;;12.90;;
76837;SDS011;65797;47.352;8.164;2023-02-15T17:04:16;26.40;;;13.00;;
76837;SDS011;65797;47.352;8.164;2023-02-15T17:09:30;18.60;;;11.90;;
76837;SDS011;65797;47.352;8.164;2023-02-15T17:11:56;27.13;;;12.83;;
76837;SDS011;65797;47.352;8.164;2023-02-15T17:14:31;20.37;;;12.43;;
76837;SDS011;65797;47.352;8.164;2023-02-15T17:17:13;24.10;;;12.10;;
76837;SDS011;65797;47.352;8.164;2023-02-15T17:19:50;17.93;;;12.23;;
76837;SDS011;65797;47.352;8.164;2023-02-15T17:22:20;18.03;;;12.20;;
76837;SDS011;65797;47.352;8.164;2023-02-15T17:24:57;21.93;;;11.03;;
76837;SDS011;65797;47.352;8.164;2023-02-15T17:27:26;23.83;;;11.40;;
76837;SDS011;65797;47.352;8.164;2023-02-15T17:29:57;18.00;;;12.20;;
76837;SDS011;65797;47.352;8.164;2023-02-15T17:32:26;24.83;;;11.43;;
76837;SDS011;65797;47.352;8.164;2023-02-15T17:42:50;20.43;;;11.27;;
76837;SDS011;65797;47.352;8.164;2023-02-15T17:45:17;20.10;;;11.80;;
76837;SDS011;65797;47.352;8.164;2023-02-15T17:47:43;29.63;;;12.10;;
76837;SDS011;65797;47.352;8.164;2023-02-15T17:50:17;18.57;;;11.33;;
76837;SDS011;65797;47.352;8.164;2023-02-15T17:52:47;25.37;;;11.33;;
76837;SDS011;65797;47.352;8.164;2023-02-15T17:55:14;22.30;;;11.50;;
76837;SDS011;65797;47.352;8.164;2023-02-15T17:58:01;25.00;;;12.00;;
76837;SDS011;65797;47.352;8.164;2023-02-15T18:00:32;23.80;;;12.27;;
76837;SDS011;65797;47.352;8.164;2023-02-15T18:03:20;19.80;;;11.80;;
76837;SDS011;65797;47.352;8.164;2023-02-15T18:06:04;32.83;;;12.20;;
76837;SDS011;65797;47.352;8.164;2023-02-15T18:08:49;19.77;;;12.40;;
76837;SDS011;65797;47.352;8.164;2023-02-15T18:11:33;21.33;;;11.83;;
76837;SDS011;65797;47.352;8.164;2023-02-15T18:14:02;23.97;;;12.50;;
76837;SDS011;65797;47.352;8.164;2023-02-15T18:16:30;25.30;;;12.00;;
76837;SDS011;65797;47.352;8.164;2023-02-15T18:18:58;21.43;;;12.00;;
76837;SDS011;65797;47.352;8.164;2023-02-15T18:21:24;19.97;;;12.53;;
76837;SDS011;65797;47.352;8.164;2023-02-15T18:23:50;27.67;;;12.07;;
76837;SDS011;65797;47.352;8.164;2023-02-15T18:26:18;20.13;;;11.40;;
76837;SDS011;65797;47.352;8.164;2023-02-15T18:28:45;18.63;;;11.70;;
76837;SDS011;65797;47.352;8.164;2023-02-15T18:31:11;23.63;;;12.80;;
76837;SDS011;65797;47.352;8.164;2023-02-15T18:33:38;16.97;;;10.97;;
76837;SDS011;65797;47.352;8.164;2023-02-15T18:36:36;17.70;;;10.90;;
76837;SDS011;65797;47.352;8.164;2023-02-15T18:42:19;21.47;;;12.40;;
76837;SDS011;65797;47.352;8.164;2023-02-15T18:44:52;24.50;;;11.33;;
76837;SDS011;65797;47.352;8.164;2023-02-15T18:47:22;19.27;;;10.63;;
76837;SDS011;65797;47.352;8.164;2023-02-15T18:49:49;16.30;;;11.50;;
76837;SDS011;65797;47.352;8.164;2023-02-15T18:52:15;19.00;;;10.00;;
76837;SDS011;65797;47.352;8.164;2023-02-15T18:54:44;23.60;;;11.50;;
76837;SDS011;65797;47.352;8.164;2023-02-15T18:57:14;16.97;;;11.00;;
76837;SDS011;65797;47.352;8.164;2023-02-15T18:59:40;20.77;;;11.43;;
76837;SDS011;65797;47.352;8.164;2023-02-15T19:02:13;27.70;;;12.30;;
76837;SDS011;65797;47.352;8.164;2023-02-15T19:04:41;19.20;;;11.30;;
76837;SDS011;65797;47.352;8.164;2023-02-15T19:07:13;16.63;;;10.80;;
76837;SDS011;65797;47.352;8.164;2023-02-15T19:09:51;20.67;;;10.97;;
76837;SDS011;65797;47.352;8.164;2023-02-15T19:12:21;18.90;;;10.37;;
76837;SDS011;65797;47.352;8.164;2023-02-15T19:14:47;22.17;;;11.40;;
76837;SDS011;65797;47.352;8.164;2023-02-15T19:17:16;18.73;;;10.40;;
76837;SDS011;65797;47.352;8.164;2023-02-15T19:19:44;18.70;;;10.83;;
76837;SDS011;65797;47.352;8.164;2023-02-15T19:22:12;18.97;;;9.93;;
76837;SDS011;65797;47.352;8.164;2023-02-15T19:24:40;18.60;;;10.70;;
76837;SDS011;65797;47.352;8.164;2023-02-15T19:29:45;18.57;;;10.77;;
76837;SDS011;65797;47.352;8.164;2023-02-15T19:32:11;16.03;;;9.97;;
76837;SDS011;65797;47.352;8.164;2023-02-15T19:34:37;18.90;;;11.67;;
76837;SDS011;65797;47.352;8.164;2023-02-15T19:37:02;23.87;;;11.90;;
76837;SDS011;65797;47.352;8.164;2023-02-15T19:39:34;22.27;;;11.93;;
76837;SDS011;65797;47.352;8.164;2023-02-15T19:42:08;19.27;;;11.47;;
76837;SDS011;65797;47.352;8.164;2023-02-15T19:44:37;21.67;;;11.03;;
76837;SDS011;65797;47.352;8.164;2023-02-15T19:47:11;19.83;;;11.27;;
76837;SDS011;65797;47.352;8.164;2023-02-15T19:49:38;19.00;;;11.70;;
76837;SDS011;65797;47.352;8.164;2023-02-15T19:52:04;18.03;;;11.27;;
76837;SDS011;65797;47.352;8.164;2023-02-15T19:54:32;21.13;;;11.17;;
76837;SDS011;65797;47.352;8.164;2023-02-15T19:56:59;18.17;;;11.60;;
76837;SDS011;65797;47.352;8.164;2023-02-15T19:59:26;21.33;;;11.40;;
76837;SDS011;65797;47.352;8.164;2023-02-15T20:01:57;16.43;;;10.20;;
76837;SDS011;65797;47.352;8.164;2023-02-15T20:04:23;17.37;;;10.37;;
76837;SDS011;65797;47.352;8.164;2023-02-15T20:06:49;25.20;;;11.20;;
76837;SDS011;65797;47.352;8.164;2023-02-15T20:09:17;20.50;;;12.70;;
76837;SDS011;65797;47.352;8.164;2023-02-15T20:11:47;21.70;;;11.40;;
76837;SDS011;65797;47.352;8.164;2023-02-15T20:14:14;18.60;;;11.03;;
76837;SDS011;65797;47.352;8.164;2023-02-15T20:16:40;17.90;;;10.33;;
76837;SDS011;65797;47.352;8.164;2023-02-15T20:19:06;19.97;;;11.70;;
76837;SDS011;65797;47.352;8.164;2023-02-15T20:21:32;20.30;;;11.00;;
76837;SDS011;65797;47.352;8.164;2023-02-15T20:23:58;16.10;;;9.87;;
76837;SDS011;65797;47.352;8.164;2023-02-15T20:26:25;16.93;;;10.10;;
76837;SDS011;65797;47.352;8.164;2023-02-15T20:28:53;18.87;;;11.07;;
76837;SDS011;65797;47.352;8.164;2023-02-15T20:31:19;20.37;;;11.30;;
76837;SDS011;65797;47.352;8.164;2023-02-15T20:33:46;21.70;;;11.50;;
76837;SDS011;65797;47.352;8.164;2023-02-15T20:36:13;22.23;;;11.60;;
76837;SDS011;65797;47.352;8.164;2023-02-15T20:38:39;25.20;;;11.10;;
76837;SDS011;65797;47.352;8.164;2023-02-15T20:41:11;20.80;;;11.47;;
76837;SDS011;65797;47.352;8.164;2023-02-15T20:44:09;26.60;;;12.73;;
76837;SDS011;65797;47.352;8.164;2023-02-15T20:46:46;23.40;;;12.80;;
76837;SDS011;65797;47.352;8.164;2023-02-15T20:49:13;22.70;;;11.60;;
76837;SDS011;65797;47.352;8.164;2023-02-15T20:51:39;22.73;;;13.07;;
76837;SDS011;65797;47.352;8.164;2023-02-15T20:54:12;26.57;;;12.50;;
76837;SDS011;65797;47.352;8.164;2023-02-15T20:56:40;22.40;;;11.00;;
76837;SDS011;65797;47.352;8.164;2023-02-15T21:01:49;23.80;;;11.20;;
76837;SDS011;65797;47.352;8.164;2023-02-15T21:04:17;17.30;;;11.20;;
76837;SDS011;65797;47.352;8.164;2023-02-15T21:06:43;19.67;;;11.33;;
76837;SDS011;65797;47.352;8.164;2023-02-15T21:09:13;23.50;;;12.07;;
76837;SDS011;65797;47.352;8.164;2023-02-15T21:11:41;19.30;;;10.90;;
76837;SDS011;65797;47.352;8.164;2023-02-15T21:14:17;23.30;;;11.97;;
76837;SDS011;65797;47.352;8.164;2023-02-15T21:16:45;17.93;;;10.73;;
76837;SDS011;65797;47.352;8.164;2023-02-15T21:19:16;18.00;;;11.17;;
76837;SDS011;65797;47.352;8.164;2023-02-15T21:21:44;21.73;;;12.80;;
76837;SDS011;65797;47.352;8.164;2023-02-15T21:24:28;22.57;;;11.93;;
76837;SDS011;65797;47.352;8.164;2023-02-15T21:26:55;23.77;;;11.50;;
76837;SDS011;65797;47.352;8.164;2023-02-15T21:29:24;24.70;;;11.40;;
76837;SDS011;65797;47.352;8.164;2023-02-15T21:31:52;19.83;;;12.63;;
76837;SDS011;65797;47.352;8.164;2023-02-15T21:34:18;20.10;;;12.20;;
76837;SDS011;65797;47.352;8.164;2023-02-15T21:36:44;20.60;;;10.60;;
76837;SDS011;65797;47.352;8.164;2023-02-15T21:39:21;21.40;;;12.07;;
76837;SDS011;65797;47.352;8.164;2023-02-15T21:41:51;20.40;;;10.90;;
76837;SDS011;65797;47.352;8.164;2023-02-15T21:44:37;19.43;;;11.30;;
76837;SDS011;65797;47.352;8.164;2023-02-15T21:47:24;18.43;;;10.83;;
76837;SDS011;65797;47.352;8.164;2023-02-15T21:50:20;16.00;;;9.47;;
76837;SDS011;65797;47.352;8.164;2023-02-15T21:53:07;18.10;;;9.57;;
76837;SDS011;65797;47.352;8.164;2023-02-15T21:55:35;22.27;;;10.80;;
76837;SDS011;65797;47.352;8.164;2023-02-15T21:58:01;20.10;;;10.97;;
76837;SDS011;65797;47.352;8.164;2023-02-15T22:00:27;18.30;;;10.03;;
76837;SDS011;65797;47.352;8.164;2023-02-15T22:02:55;18.20;;;10.20;;
76837;SDS011;65797;47.352;8.164;2023-02-15T22:05:23;15.23;;;9.20;;
76837;SDS011;65797;47.352;8.164;2023-02-15T22:07:52;19.53;;;10.23;;
76837;SDS011;65797;47.352;8.164;2023-02-15T22:10:18;16.90;;;8.87;;
76837;SDS011;65797;47.352;8.164;2023-02-15T22:12:44;16.07;;;10.13;;
76837;SDS011;65797;47.352;8.164;2023-02-15T22:15:17;21.57;;;11.40;;
76837;SDS011;65797;47.352;8.164;2023-02-15T22:17:45;20.63;;;10.30;;
76837;SDS011;65797;47.352;8.164;2023-02-15T22:20:16;18.73;;;9.80;;
76837;SDS011;65797;47.352;8.164;2023-02-15T22:22:47;15.57;;;9.67;;